Fulton, New York
Current Conditions -  °F | °C
As of 9:54 AM on Monday 24 Nov 2014 (Local Time) from KFZY Reporting Station
Clear Clear  
Wind Chill: 66°   Ceiling: Unl
Heat Index: 66°   Visibility: 10mi
Dew Point: 52°   Wind: 18mph
Humidity: 60%   Direction: 190°S
Pressure: 29.4"   Gusts: 31mph
Location:  43.32°N, 76.41°W
Report Text: KFZY 241454Z AUTO 19016G27KT 10SM CLR 19/11 A2940 RMK AO2 PK WND 18031/1440 SLP954 T01890111 56006
Loading
Personal Weather Stations






























Interactive Weather Map New forecast layout! Learn more

10-Day Weather Forecast

Advertisements
Track Severe Weather on mobile